^^
Station Historical Data
Daily Summary for March 8, 2018 Units:  Both    English   Metric
« Previous Day
Next Day »
Daily Weekly Monthly Yearly Custom
  High: Low: Average:
Temperature: TemperatureF °F /  -17.8 °C 55.6 °F /  13.1 °C 64.6 °F /  18.1 °C
Dew Point: DewpointF °F /  -17.8 °C 31.6 °F /  -0.2 °C 44.4 °F /  6.9 °C
Humidity: Humidity% 18% 54%
Wind Speed: WindSpeedMPHmph /  0km/h - 11.4mph /  18.3km/h
Wind Gust: WindSpeedGustMPHmph /  0km/h - -
Wind- - South
Pressure: PressureIn in /  0 hPa 29.81 in /  1009.4 hPa -
Precipitation: 0.00 in /  0 mm    
Historical Graphs
 
 
Tabular Data for March 8, 2018
Time Temperature Dew Point Pressure Wind Wind Speed Wind Gust Humidity Rainfall Rate (Hourly) solar Conditions
TemperatureF °F /  -17.8 °C DewpointF °F /  -17.8 °C PressureInin /  0hPa Calm     Humidity% HourlyPrecipInin /  0mm SolarRadiationWatts/m^2 W/m2 Conditions
04:47 57.0 °F /  13.9 °C 51.6 °F /  10.9 °C 29.83in /  1010hPa South 6.9mph /  11.1km/h 9.0mph /  14.5km/h 82% 0.00in /  0mm 0.0 W/m2
04:52 56.8 °F /  13.8 °C 51.4 °F /  10.8 °C 29.83in /  1010hPa South 8.9mph /  14.3km/h 10.0mph /  16.1km/h 82% 0.00in /  0mm 0.0 W/m2
05:02 56.8 °F /  13.8 °C 51.1 °F /  10.6 °C 29.83in /  1010hPa South 4.9mph /  7.9km/h 8.0mph /  12.9km/h 81% 0.00in /  0mm 0.0 W/m2
05:08 56.7 °F /  13.7 °C 50.9 °F /  10.5 °C 29.83in /  1010hPa South 6.9mph /  11.1km/h 8.0mph /  12.9km/h 81% 0.00in /  0mm 0.0 W/m2
05:17 56.5 °F /  13.6 °C 50.7 °F /  10.4 °C 29.83in /  1010hPa South 6.9mph /  11.1km/h 7.0mph /  11.3km/h 81% 0.00in /  0mm 0.0 W/m2
05:22 56.5 °F /  13.6 °C 50.7 °F /  10.4 °C 29.84in /  1010.4hPa South 6.9mph /  11.1km/h 9.0mph /  14.5km/h 81% 0.00in /  0mm 0.0 W/m2
05:27 56.5 °F /  13.6 °C 50.7 °F /  10.4 °C 29.84in /  1010.4hPa South 6.0mph /  9.7km/h 10.0mph /  16.1km/h 81% 0.00in /  0mm 0.0 W/m2
05:32 56.3 °F /  13.5 °C 50.9 °F /  10.5 °C 29.84in /  1010.4hPa SSW 6.9mph /  11.1km/h 11.0mph /  17.7km/h 82% 0.00in /  0mm 0.0 W/m2
05:37 56.3 °F /  13.5 °C 50.9 °F /  10.5 °C 29.85in /  1010.7hPa SSW 8.1mph /  13km/h 11.0mph /  17.7km/h 82% 0.00in /  0mm 0.0 W/m2
05:42 56.1 °F /  13.4 °C 50.7 °F /  10.4 °C 29.84in /  1010.4hPa SSW 8.9mph /  14.3km/h 12.0mph /  19.3km/h 82% 0.00in /  0mm 0.0 W/m2
05:47 56.1 °F /  13.4 °C 50.4 °F /  10.2 °C 29.84in /  1010.4hPa SSW 15.0mph /  24.1km/h 15.0mph /  24.1km/h 81% 0.00in /  0mm 0.0 W/m2
05:52 56.1 °F /  13.4 °C 50.4 °F /  10.2 °C 29.84in /  1010.4hPa SSW 13.0mph /  20.9km/h 13.0mph /  20.9km/h 81% 0.00in /  0mm 0.0 W/m2
05:57 55.9 °F /  13.3 °C 50.2 °F /  10.1 °C 29.84in /  1010.4hPa SSW 8.9mph /  14.3km/h 12.0mph /  19.3km/h 81% 0.00in /  0mm 0.0 W/m2
06:03 55.9 °F /  13.3 °C 50.2 °F /  10.1 °C 29.84in /  1010.4hPa South 8.9mph /  14.3km/h 12.0mph /  19.3km/h 81% 0.00in /  0mm 0.0 W/m2
06:08 55.9 °F /  13.3 °C 50.2 °F /  10.1 °C 29.84in /  1010.4hPa SSW 12.1mph /  19.5km/h 13.0mph /  20.9km/h 81% 0.00in /  0mm 0.0 W/m2
06:14 55.8 °F /  13.2 °C 50.0 °F /  10 °C 29.84in /  1010.4hPa SSW 8.1mph /  13km/h 14.0mph /  22.5km/h 81% 0.00in /  0mm 0.0 W/m2
06:20 55.8 °F /  13.2 °C 50.0 °F /  10 °C 29.84in /  1010.4hPa SSW 8.1mph /  13km/h 12.0mph /  19.3km/h 81% 0.00in /  0mm 0.0 W/m2
06:25 55.8 °F /  13.2 °C 50.0 °F /  10 °C 29.84in /  1010.4hPa SSW 11.0mph /  17.7km/h 12.0mph /  19.3km/h 81% 0.00in /  0mm 0.0 W/m2
06:38 55.6 °F /  13.1 °C 50.2 °F /  10.1 °C 29.85in /  1010.7hPa South 13.0mph /  20.9km/h 13.0mph /  20.9km/h 82% 0.00in /  0mm 0.0 W/m2
06:51 55.6 °F /  13.1 °C 49.8 °F /  9.9 °C 29.85in /  1010.7hPa South 12.1mph /  19.5km/h 15.0mph /  24.1km/h 81% 0.00in /  0mm 5.0 W/m2
07:00 55.6 °F /  13.1 °C 49.8 °F /  9.9 °C 29.86in /  1011.1hPa SSW 14.1mph /  22.7km/h 17.0mph /  27.4km/h 81% 0.00in /  0mm 12.0 W/m2
07:08 55.8 °F /  13.2 °C 50.0 °F /  10 °C 29.86in /  1011.1hPa South 16.1mph /  25.9km/h 17.0mph /  27.4km/h 81% 0.00in /  0mm 23.0 W/m2
07:14 55.9 °F /  13.3 °C 50.2 °F /  10.1 °C 29.86in /  1011.1hPa South 17.9mph /  28.8km/h 19.0mph /  30.6km/h 81% 0.00in /  0mm 39.0 W/m2
07:24 56.1 °F /  13.4 °C 50.0 °F /  10 °C 29.87in /  1011.4hPa South 12.1mph /  19.5km/h 15.0mph /  24.1km/h 80% 0.00in /  0mm 84.0 W/m2
07:29 56.5 °F /  13.6 °C 50.0 °F /  10 °C 29.87in /  1011.4hPa South 14.1mph /  22.7km/h 18.0mph /  29km/h 79% 0.00in /  0mm 91.0 W/m2
07:34 56.5 °F /  13.6 °C 50.0 °F /  10 °C 29.87in /  1011.4hPa SSW 15.0mph /  24.1km/h 17.0mph /  27.4km/h 79% 0.00in /  0mm 113.0 W/m2
07:40 56.7 °F /  13.7 °C 49.8 °F /  9.9 °C 29.87in /  1011.4hPa South 17.0mph /  27.4km/h 18.0mph /  29km/h 78% 0.00in /  0mm 130.0 W/m2
07:47 56.7 °F /  13.7 °C 49.8 °F /  9.9 °C 29.87in /  1011.4hPa SSW 14.1mph /  22.7km/h 17.0mph /  27.4km/h 78% 0.00in /  0mm 151.0 W/m2
07:58 57.0 °F /  13.9 °C 49.8 °F /  9.9 °C 29.88in /  1011.7hPa SSW 11.0mph /  17.7km/h 16.0mph /  25.7km/h 77% 0.00in /  0mm 193.0 W/m2
08:12 57.6 °F /  14.2 °C 50.4 °F /  10.2 °C 29.88in /  1011.7hPa SSW 16.1mph /  25.9km/h 16.1mph /  25.9km/h 77% 0.00in /  0mm 260.0 W/m2
08:23 57.7 °F /  14.3 °C 50.2 °F /  10.1 °C 29.88in /  1011.7hPa SSW 17.0mph /  27.4km/h 18.0mph /  29km/h 76% 0.00in /  0mm 302.0 W/m2
08:37 58.6 °F /  14.8 °C 50.0 °F /  10 °C 29.88in /  1011.7hPa South 12.1mph /  19.5km/h 15.0mph /  24.1km/h 73% 0.00in /  0mm 357.0 W/m2
08:49 58.8 °F /  14.9 °C 49.5 °F /  9.7 °C 29.88in /  1011.7hPa SSW 14.1mph /  22.7km/h 20.0mph /  32.2km/h 71% 0.00in /  0mm 394.0 W/m2
09:04 59.2 °F /  15.1 °C 49.5 °F /  9.7 °C 29.88in /  1011.7hPa SSW 17.0mph /  27.4km/h 17.0mph /  27.4km/h 70% 0.00in /  0mm 445.0 W/m2
09:19 60.3 °F /  15.7 °C 48.4 °F /  9.1 °C 29.89in /  1012.1hPa South 15.0mph /  24.1km/h 17.0mph /  27.4km/h 65% 0.00in /  0mm 499.0 W/m2
09:35 61.0 °F /  16.1 °C 48.7 °F /  9.3 °C 29.88in /  1011.7hPa South 13.0mph /  20.9km/h 17.0mph /  27.4km/h 64% 0.00in /  0mm 550.0 W/m2
10:05 62.8 °F /  17.1 °C 48.2 °F /  9 °C 29.89in /  1012.1hPa South 14.1mph /  22.7km/h 16.0mph /  25.7km/h 59% 0.00in /  0mm 643.0 W/m2
10:34 65.1 °F /  18.4 °C 47.5 °F /  8.6 °C 29.88in /  1011.7hPa SSE 11.0mph /  17.7km/h 14.0mph /  22.5km/h 53% 0.00in /  0mm 726.0 W/m2
11:06 67.5 °F /  19.7 °C 47.7 °F /  8.7 °C 29.88in /  1011.7hPa SSW 11.0mph /  17.7km/h 16.0mph /  25.7km/h 49% 0.00in /  0mm 800.0 W/m2
11:22 68.2 °F /  20.1 °C 46.6 °F /  8.1 °C 29.88in /  1011.7hPa SSW 13.0mph /  20.9km/h 16.0mph /  25.7km/h 46% 0.00in /  0mm 828.0 W/m2
12:19 72.7 °F /  22.6 °C 43.5 °F /  6.4 °C 29.87in /  1011.4hPa SSW 14.1mph /  22.7km/h 20.0mph /  32.2km/h 35% 0.00in /  0mm 916.0 W/m2
12:44 74.1 °F /  23.4 °C 40.6 °F /  4.8 °C 29.87in /  1011.4hPa SSW 16.1mph /  25.9km/h 16.1mph /  25.9km/h 30% 0.00in /  0mm 926.0 W/m2
14:24 77.5 °F /  25.3 °C 33.3 °F /  0.7 °C 29.84in /  1010.4hPa South 12.1mph /  19.5km/h 17.0mph /  27.4km/h 20% 0.00in /  0mm 863.0 W/m2
14:40 78.1 °F /  25.6 °C 32.5 °F /  0.3 °C 29.83in /  1010hPa SSE 13.0mph /  20.9km/h 20.0mph /  32.2km/h 19% 0.00in /  0mm 851.0 W/m2
15:50 79.3 °F /  26.3 °C 34.7 °F /  1.5 °C 29.82in /  1009.7hPa SSW 12.1mph /  19.5km/h 19.0mph /  30.6km/h 20% 0.00in /  0mm 689.0 W/m2
16:05 79.9 °F /  26.6 °C 34.0 °F /  1.1 °C 29.82in /  1009.7hPa South 16.1mph /  25.9km/h 20.0mph /  32.2km/h 19% 0.00in /  0mm 647.0 W/m2
16:19 79.5 °F /  26.4 °C 34.9 °F /  1.6 °C 29.81in /  1009.4hPa SW 14.1mph /  22.7km/h 17.0mph /  27.4km/h 20% 0.00in /  0mm 601.0 W/m2
16:39 79.3 °F /  26.3 °C 33.4 °F /  0.8 °C 29.81in /  1009.4hPa South 16.1mph /  25.9km/h 23.0mph /  37km/h 19% 0.00in /  0mm 534.0 W/m2
16:49 79.3 °F /  26.3 °C 34.7 °F /  1.5 °C 29.81in /  1009.4hPa South 8.1mph /  13km/h 17.0mph /  27.4km/h 20% 0.00in /  0mm 501.0 W/m2
16:59 79.3 °F /  26.3 °C 34.7 °F /  1.5 °C 29.81in /  1009.4hPa SSW 8.9mph /  14.3km/h 14.0mph /  22.5km/h 20% 0.00in /  0mm 466.0 W/m2
17:08 79.2 °F /  26.2 °C 33.4 °F /  0.8 °C 29.81in /  1009.4hPa SSW 16.1mph /  25.9km/h 20.0mph /  32.2km/h 19% 0.00in /  0mm 432.0 W/m2
17:16 79.3 °F /  26.3 °C 34.7 °F /  1.5 °C 29.81in /  1009.4hPa SSE 17.9mph /  28.8km/h 19.0mph /  30.6km/h 20% 0.00in /  0mm 394.0 W/m2
17:26 79.2 °F /  26.2 °C 33.4 °F /  0.8 °C 29.81in /  1009.4hPa South 14.1mph /  22.7km/h 18.0mph /  29km/h 19% 0.00in /  0mm 357.0 W/m2
17:31 78.8 °F /  26 °C 31.6 °F /  -0.2 °C 29.81in /  1009.4hPa SSE 14.1mph /  22.7km/h 19.0mph /  30.6km/h 18% 0.00in /  0mm 341.0 W/m2
17:36 79.0 °F /  26.1 °C 34.5 °F /  1.4 °C 29.81in /  1009.4hPa South 14.1mph /  22.7km/h 17.0mph /  27.4km/h 20% 0.00in /  0mm 318.0 W/m2
17:41 79.0 °F /  26.1 °C 34.5 °F /  1.4 °C 29.81in /  1009.4hPa South 13.0mph /  20.9km/h 17.0mph /  27.4km/h 20% 0.00in /  0mm 306.0 W/m2
17:51 78.4 °F /  25.8 °C 34.0 °F /  1.1 °C 29.81in /  1009.4hPa SSE 12.1mph /  19.5km/h 16.0mph /  25.7km/h 20% 0.00in /  0mm 264.0 W/m2
17:56 78.4 °F /  25.8 °C 35.2 °F /  1.8 °C 29.81in /  1009.4hPa South 15.0mph /  24.1km/h 15.0mph /  24.1km/h 21% 0.00in /  0mm 243.0 W/m2
18:02 78.4 °F /  25.8 °C 32.7 °F /  0.4 °C 29.81in /  1009.4hPa South 17.0mph /  27.4km/h 20.0mph /  32.2km/h 19% 0.00in /  0mm 220.0 W/m2
18:08 78.1 °F /  25.6 °C 33.8 °F /  1 °C 29.81in /  1009.4hPa SSE 14.1mph /  22.7km/h 19.0mph /  30.6km/h 20% 0.00in /  0mm 195.0 W/m2
19:42 74.5 °F /  23.6 °C 33.1 °F /  0.6 °C 29.83in /  1010hPa South 14.1mph /  22.7km/h 16.0mph /  25.7km/h 22% 0.00in /  0mm 0.0 W/m2
20:27 72.9 °F /  22.7 °C 35.1 °F /  1.7 °C 29.84in /  1010.4hPa SSE 8.9mph /  14.3km/h 14.0mph /  22.5km/h 25% 0.00in /  0mm 0.0 W/m2
20:56 71.6 °F /  22 °C 38.5 °F /  3.6 °C 29.84in /  1010.4hPa SSE 8.9mph /  14.3km/h 12.0mph /  19.3km/h 30% 0.00in /  0mm 0.0 W/m2
21:12 71.1 °F /  21.7 °C 41.4 °F /  5.2 °C 29.85in /  1010.7hPa SSE 10.1mph /  16.3km/h 14.0mph /  22.5km/h 34% 0.00in /  0mm 0.0 W/m2
21:27 70.3 °F /  21.3 °C 42.1 °F /  5.6 °C 29.85in /  1010.7hPa South 8.9mph /  14.3km/h 9.0mph /  14.5km/h 36% 0.00in /  0mm 0.0 W/m2
21:38 69.4 °F /  20.8 °C 44.8 °F /  7.1 °C 29.86in /  1011.1hPa South 6.0mph /  9.7km/h 10.0mph /  16.1km/h 41% 0.00in /  0mm 0.0 W/m2
21:46 68.5 °F /  20.3 °C 45.7 °F /  7.6 °C 29.85in /  1010.7hPa South 6.0mph /  9.7km/h 10.0mph /  16.1km/h 44% 0.00in /  0mm 0.0 W/m2
21:52 68.2 °F /  20.1 °C 46.0 °F /  7.8 °C 29.85in /  1010.7hPa South 8.1mph /  13km/h 11.0mph /  17.7km/h 45% 0.00in /  0mm 0.0 W/m2
21:58 67.8 °F /  19.9 °C 46.2 °F /  7.9 °C 29.86in /  1011.1hPa South 6.0mph /  9.7km/h 11.0mph /  17.7km/h 46% 0.00in /  0mm 0.0 W/m2
22:08 67.3 °F /  19.6 °C 46.4 °F /  8 °C 29.86in /  1011.1hPa South 10.1mph /  16.3km/h 11.0mph /  17.7km/h 47% 0.00in /  0mm 0.0 W/m2
22:17 66.9 °F /  19.4 °C 46.6 °F /  8.1 °C 29.86in /  1011.1hPa South 8.1mph /  13km/h 11.0mph /  17.7km/h 48% 0.00in /  0mm 0.0 W/m2
22:22 66.7 °F /  19.3 °C 46.4 °F /  8 °C 29.86in /  1011.1hPa SSW 11.0mph /  17.7km/h 11.0mph /  17.7km/h 48% 0.00in /  0mm 0.0 W/m2
22:28 66.6 °F /  19.2 °C 46.8 °F /  8.2 °C 29.86in /  1011.1hPa SSW 13.0mph /  20.9km/h 14.0mph /  22.5km/h 49% 0.00in /  0mm 0.0 W/m2
22:37 66.2 °F /  19 °C 46.9 °F /  8.3 °C 29.86in /  1011.1hPa South 11.0mph /  17.7km/h 14.0mph /  22.5km/h 50% 0.00in /  0mm 0.0 W/m2
22:42 65.8 °F /  18.8 °C 46.8 °F /  8.2 °C 29.86in /  1011.1hPa SSW 11.0mph /  17.7km/h 13.0mph /  20.9km/h 50% 0.00in /  0mm 0.0 W/m2
22:47 65.8 °F /  18.8 °C 47.1 °F /  8.4 °C 29.86in /  1011.1hPa SSW 13.0mph /  20.9km/h 17.0mph /  27.4km/h 51% 0.00in /  0mm 0.0 W/m2
22:52 65.7 °F /  18.7 °C 47.1 °F /  8.4 °C 29.86in /  1011.1hPa South 13.0mph /  20.9km/h 15.0mph /  24.1km/h 51% 0.00in /  0mm 0.0 W/m2
22:57 65.7 °F /  18.7 °C 47.1 °F /  8.4 °C 29.86in /  1011.1hPa South 11.0mph /  17.7km/h 15.0mph /  24.1km/h 51% 0.00in /  0mm 0.0 W/m2
23:02 65.5 °F /  18.6 °C 46.9 °F /  8.3 °C 29.86in /  1011.1hPa South 6.9mph /  11.1km/h 13.0mph /  20.9km/h 51% 0.00in /  0mm 0.0 W/m2
23:07 65.1 °F /  18.4 °C 47.1 °F /  8.4 °C 29.86in /  1011.1hPa South 11.0mph /  17.7km/h 13.0mph /  20.9km/h 52% 0.00in /  0mm 0.0 W/m2
23:17 64.8 °F /  18.2 °C 46.8 °F /  8.2 °C 29.86in /  1011.1hPa South 6.9mph /  11.1km/h 9.0mph /  14.5km/h 52% 0.00in /  0mm 0.0 W/m2
23:22 64.6 °F /  18.1 °C 47.1 °F /  8.4 °C 29.86in /  1011.1hPa SSW 8.9mph /  14.3km/h 11.0mph /  17.7km/h 53% 0.00in /  0mm 0.0 W/m2
23:32 64.6 °F /  18.1 °C 47.5 °F /  8.6 °C 29.86in /  1011.1hPa South 8.9mph /  14.3km/h 13.0mph /  20.9km/h 54% 0.00in /  0mm 0.0 W/m2
23:37 64.4 °F /  18 °C 47.5 °F /  8.6 °C 29.86in /  1011.1hPa South 6.9mph /  11.1km/h 13.0mph /  20.9km/h 54% 0.00in /  0mm 0.0 W/m2
23:42 64.2 °F /  17.9 °C 47.3 °F /  8.5 °C 29.86in /  1011.1hPa South 13.0mph /  20.9km/h 14.0mph /  22.5km/h 54% 0.00in /  0mm 0.0 W/m2
23:52 64.0 °F /  17.8 °C 47.1 °F /  8.4 °C 29.87in /  1011.4hPa SSE 8.9mph /  14.3km/h 13.0mph /  20.9km/h 54% 0.00in /  0mm 0.0 W/m2
23:57 63.9 °F /  17.7 °C 46.9 °F /  8.3 °C 29.87in /  1011.4hPa SSE 6.9mph /  11.1km/h 13.0mph /  20.9km/h 54% 0.00in /  0mm 0.0 W/m2
Canyon Roadhouse, Fishriver Canyon, Namibia
Compliments of Weather Underground - 2 mb